createdAt,value
2023-03-10T00:01:43.527Z,97821
2023-03-10T00:07:48.143Z,97812
2023-03-10T00:13:41.039Z,97813
2023-03-10T00:19:33.236Z,97805
2023-03-10T00:25:29.986Z,97807
2023-03-10T00:31:27.733Z,97808
2023-03-10T00:37:22.799Z,97797
2023-03-10T00:43:16.686Z,97798
2023-03-10T00:49:20.746Z,97787
2023-03-10T00:55:14.564Z,97789
2023-03-10T01:01:11.546Z,97786
2023-03-10T01:07:07.148Z,97786
2023-03-10T01:13:01.712Z,97783
2023-03-10T01:18:54.668Z,97772
2023-03-10T01:24:48.202Z,97779
2023-03-10T01:30:41.073Z,97777
2023-03-10T01:36:33.475Z,97770
2023-03-10T01:42:23.139Z,97770
2023-03-10T01:48:22.721Z,97757
2023-03-10T01:54:18.702Z,97754
2023-03-10T02:00:12.739Z,97756
2023-03-10T02:06:06.050Z,97759
2023-03-10T02:11:59.826Z,97755
2023-03-10T02:17:49.448Z,97746
2023-03-10T02:24:02.286Z,97755
2023-03-10T02:30:03.160Z,97763
2023-03-10T02:35:57.164Z,97755
2023-03-10T02:41:49.386Z,97744
2023-03-10T02:47:59.738Z,97733
2023-03-10T02:54:05.730Z,97739
2023-03-10T02:59:58.008Z,97727
2023-03-10T03:05:58.165Z,97732
2023-03-10T03:11:55.470Z,97722
2023-03-10T03:17:48.385Z,97743
2023-03-10T03:23:42.660Z,97729
2023-03-10T03:29:43.114Z,97728
2023-03-10T03:35:40.605Z,97735
2023-03-10T03:41:32.800Z,97718
2023-03-10T03:47:26.351Z,97718
2023-03-10T03:53:17.502Z,97719
2023-03-10T03:59:09.804Z,97712
2023-03-10T04:05:03.009Z,97706
2023-03-10T04:10:54.856Z,97689
2023-03-10T04:16:52.120Z,97699
2023-03-10T04:22:52.999Z,97695
2023-03-10T04:28:49.874Z,97685
2023-03-10T04:34:46.263Z,97678
2023-03-10T04:40:38.538Z,97675
2023-03-10T04:46:35.667Z,97664
2023-03-10T04:52:31.761Z,97672
2023-03-10T04:58:26.750Z,97672
2023-03-10T05:04:28.029Z,97671
2023-03-10T05:10:24.326Z,97666
2023-03-10T05:16:23.273Z,97664
2023-03-10T05:22:18.819Z,97660
2023-03-10T05:40:02.688Z,97644
2023-03-10T05:45:56.549Z,97638
2023-03-10T05:51:48.675Z,97636
2023-03-10T06:03:49.734Z,97636
2023-03-10T06:09:42.926Z,97636
2023-03-10T06:15:36.445Z,97639
2023-03-10T06:22:37.910Z,97631
2023-03-10T06:28:28.388Z,97644
2023-03-10T06:34:20.482Z,97629
2023-03-10T06:40:11.301Z,97629
2023-03-10T06:46:03.540Z,97636
2023-03-10T06:51:55.733Z,97636
2023-03-10T06:57:47.068Z,97643
2023-03-10T07:03:37.945Z,97647
2023-03-10T07:09:43.330Z,97661
2023-03-10T07:15:33.149Z,97664
2023-03-10T07:21:25.948Z,97658
2023-03-10T07:27:17.452Z,97656
2023-03-10T07:33:08.552Z,97651
2023-03-10T07:38:58.247Z,97663
2023-03-10T07:44:49.364Z,97658
2023-03-10T07:50:39.681Z,97655
2023-03-10T07:56:30.520Z,97649
2023-03-10T08:02:21.530Z,97648
2023-03-10T08:08:16.287Z,97651
2023-03-10T08:14:07.277Z,97659
2023-03-10T08:19:58.874Z,97663
2023-03-10T08:25:49.657Z,97675
2023-03-10T08:31:43.516Z,97685
2023-03-10T08:37:34.896Z,97680
2023-03-10T08:43:26.115Z,97688
2023-03-10T08:49:16.969Z,97686
2023-03-10T08:55:08.110Z,97690
2023-03-10T09:01:00.139Z,97693
2023-03-10T09:06:50.884Z,97697
2023-03-10T09:12:44.562Z,97699
2023-03-10T09:18:36.247Z,97695
2023-03-10T09:24:27.177Z,97705
2023-03-10T09:30:20.856Z,97703
2023-03-10T09:36:13.859Z,97704
2023-03-10T09:42:07.402Z,97707
2023-03-10T09:47:59.907Z,97715
2023-03-10T09:53:53.562Z,97712
2023-03-10T09:59:46.376Z,97716
2023-03-10T10:05:37.490Z,97712
2023-03-10T10:11:28.461Z,97703
2023-03-10T10:17:20.432Z,97711
2023-03-10T10:23:11.998Z,97712
2023-03-10T10:29:02.828Z,97710
2023-03-10T10:34:53.790Z,97705
2023-03-10T10:40:44.921Z,97714
2023-03-10T10:46:35.244Z,97709
2023-03-10T10:52:26.508Z,97719
2023-03-10T10:58:17.100Z,97710
2023-03-10T11:04:07.674Z,97699
2023-03-10T11:09:59.006Z,97697
2023-03-10T11:15:49.673Z,97702
2023-03-10T11:21:40.811Z,97702
2023-03-10T11:27:31.249Z,97693
2023-03-10T11:33:22.264Z,97701
2023-03-10T11:39:12.562Z,97705
2023-03-10T11:45:03.272Z,97682
2023-03-10T11:50:52.292Z,97686
2023-03-10T11:56:41.829Z,97698
2023-03-10T12:02:34.171Z,97691
2023-03-10T12:08:24.813Z,97678
2023-03-10T12:14:20.141Z,97665
2023-03-10T12:20:17.017Z,97651
2023-03-10T12:26:06.354Z,97641
2023-03-10T12:31:56.794Z,97635
2023-03-10T12:37:48.080Z,97633
2023-03-10T12:43:40.373Z,97627
2023-03-10T12:49:30.562Z,97627
2023-03-10T12:55:21.434Z,97622
2023-03-10T13:01:12.260Z,97610
2023-03-10T13:07:03.826Z,97598
2023-03-10T13:12:54.186Z,97585
2023-03-10T13:18:45.089Z,97581
2023-03-10T13:24:36.045Z,97600
2023-03-10T13:30:26.886Z,97597
2023-03-10T13:37:26.533Z,97598
2023-03-10T13:43:16.641Z,97575
2023-03-10T13:49:08.300Z,97571
2023-03-10T13:55:00.852Z,97598
2023-03-10T14:00:50.903Z,97610
2023-03-10T14:06:41.283Z,97639
2023-03-10T14:12:31.916Z,97665
2023-03-10T14:18:22.343Z,97693
2023-03-10T14:24:12.851Z,97700
2023-03-10T14:30:03.970Z,97717
2023-03-10T14:35:54.772Z,97740
2023-03-10T14:41:45.969Z,97748
2023-03-10T14:47:36.596Z,97765
2023-03-10T14:53:31.343Z,97771
2023-03-10T14:59:23.617Z,97781
2023-03-10T15:05:15.256Z,97809
2023-03-10T15:11:05.676Z,97800
2023-03-10T15:16:56.254Z,97802
2023-03-10T15:22:46.904Z,97818
2023-03-10T15:28:39.234Z,97854
2023-03-10T15:34:31.158Z,97837
2023-03-10T15:40:30.927Z,97835
2023-03-10T15:46:23.741Z,97830
2023-03-10T15:52:15.448Z,97819
2023-03-10T15:58:06.962Z,97829
2023-03-10T16:03:58.058Z,97830
2023-03-10T16:09:49.293Z,97869
2023-03-10T16:15:40.260Z,97866
2023-03-10T16:21:31.690Z,97871
2023-03-10T16:27:24.352Z,97897
2023-03-10T16:33:19.449Z,97938
2023-03-10T16:39:09.773Z,97950
2023-03-10T16:45:01.318Z,97997
2023-03-10T16:50:52.596Z,98042
2023-03-10T16:56:42.558Z,98124
2023-03-10T17:02:33.318Z,98221
2023-03-10T17:08:23.279Z,98291
2023-03-10T17:14:13.722Z,98300
2023-03-10T17:20:03.719Z,98353
2023-03-10T17:25:54.166Z,98393
2023-03-10T17:31:47.490Z,98422
2023-03-10T17:37:39.089Z,98436
2023-03-10T17:43:37.376Z,98450
2023-03-10T17:49:27.450Z,98490
2023-03-10T17:55:19.381Z,98489
2023-03-10T18:01:10.623Z,98540
2023-03-10T18:07:01.362Z,98564
2023-03-10T18:12:52.718Z,98566
2023-03-10T18:18:42.828Z,98617
2023-03-10T18:24:33.753Z,98619
2023-03-10T18:30:24.010Z,98679
2023-03-10T18:36:14.384Z,98698
2023-03-10T18:42:05.461Z,98734
2023-03-10T18:47:56.989Z,98746
2023-03-10T18:53:48.010Z,98745
2023-03-10T18:59:39.606Z,98792
2023-03-10T19:05:30.413Z,98790
2023-03-10T19:11:23.950Z,98829
2023-03-10T19:17:15.164Z,98826
2023-03-10T19:23:08.600Z,98834
2023-03-10T19:28:59.522Z,98877
2023-03-10T19:34:49.674Z,98871
2023-03-10T19:40:40.468Z,98877
2023-03-10T19:46:32.725Z,98907
2023-03-10T19:52:25.345Z,98922
2023-03-10T19:58:16.496Z,98973
2023-03-10T20:04:11.185Z,98976
2023-03-10T20:10:01.935Z,99006
2023-03-10T20:15:51.802Z,99025
2023-03-10T20:21:46.687Z,99049
2023-03-10T20:27:36.520Z,99058
2023-03-10T20:33:27.455Z,99066
2023-03-10T20:39:18.833Z,99085
2023-03-10T20:45:08.737Z,99099
2023-03-10T20:50:59.531Z,99111
2023-03-10T20:56:49.352Z,99134
2023-03-10T21:02:40.672Z,99149
2023-03-10T21:08:32.810Z,99148
2023-03-10T21:14:23.200Z,99164
2023-03-10T21:20:13.446Z,99166
2023-03-10T21:26:03.510Z,99162
2023-03-10T21:31:53.996Z,99182
2023-03-10T21:37:51.049Z,99194
2023-03-10T21:43:40.456Z,99201
2023-03-10T21:49:31.225Z,99217
2023-03-10T21:55:22.447Z,99215
2023-03-10T22:01:20.087Z,99254
2023-03-10T22:07:11.183Z,99253
2023-03-10T22:13:03.817Z,99252
2023-03-10T22:18:53.647Z,99262
2023-03-10T22:24:44.282Z,99281
2023-03-10T22:30:34.548Z,99284
2023-03-10T22:36:25.621Z,99302
2023-03-10T22:42:15.672Z,99308
2023-03-10T22:48:06.262Z,99332
2023-03-10T22:53:56.113Z,99346
2023-03-10T22:59:47.778Z,99346
2023-03-10T23:05:38.451Z,99350
2023-03-10T23:11:28.654Z,99357
2023-03-10T23:17:18.133Z,99369
2023-03-10T23:23:07.198Z,99378
2023-03-10T23:28:57.608Z,99376
2023-03-10T23:34:53.720Z,99387
2023-03-10T23:40:50.725Z,99395
2023-03-10T23:59:15.621Z,99413
